METAR Data
IDs: Format: Raw Decoded Include TAF

Data at: 1251 UTC 23 Sep 2018

KSVH 231245Z AUTO 00000KT 1/2SM FG OVC003 20/19 A3012 RMK AO2 T01950193
KSVH 231225Z AUTO 04004KT 1/4SM FG OVC003 20/19 A3012 RMK AO2 T01950193
KSVH 231205Z AUTO 05006KT 1/4SM FG OVC003 20/19 A3011 RMK AO2 T01950193
KSVH 231145Z AUTO 04005KT M1/4SM FG OVC003 20/19 A3011 RMK AO2 T01950193
KSVH 231125Z AUTO 04004KT 1/4SM FG OVC003 20/20 A3011 RMK AO2 T02000197
KSVH 231105Z AUTO 06003KT 4SM BR OVC003 21/20 A3010 RMK AO2 T02050201
KSVH 231045Z AUTO 07004KT 1 1/2SM BR OVC003 21/20 A3010 RMK AO2 T02050203
KSVH 231025Z AUTO 07004KT 1/2SM FG OVC003 21/20 A3009 RMK AO2 T02050203
KSVH 231005Z AUTO 07003KT 1/2SM FG OVC003 21/20 A3009 RMK AO2 T02050203
KSVH 230945Z AUTO 06004KT 1 3/4SM BR OVC003 21/20 A3009 RMK AO2 T02050202
KSVH 230925Z AUTO 00000KT 4SM BR SCT003 BKN050 20/20 A3009 RMK AO2 T02010197
KSVH 230905Z AUTO 00000KT 7SM SCT042 SCT050 20/20 A3009 RMK AO2 T02000195
KSVH 230845Z AUTO 05003KT 7SM BKN042 BKN060 20/20 A3009 RMK AO2 T02010196
KSVH 230825Z AUTO 00000KT 10SM SCT042 OVC050 21/20 A3009 RMK AO2 T02050200
KSVH 230805Z AUTO 03003KT 7SM BKN050 20/20 A3009 RMK AO2 T02000195
KSVH 230745Z AUTO 00000KT 10SM SCT049 20/20 A3009 RMK AO2 T02020195
KSVH 230725Z AUTO 00000KT 7SM CLR 20/20 A3009 RMK AO2 T02030198
KSVH 230705Z AUTO 00000KT 10SM CLR 21/20 A3009 RMK AO2 T02050198
KSVH 230645Z AUTO 00000KT 10SM CLR 21/20 A3009 RMK AO2 T02100201
KSVH 230625Z AUTO 00000KT 10SM CLR 20/20 A3009 RMK AO2 T02040197
KSVH 230605Z AUTO 17003KT 7SM CLR 21/20 A3009 RMK AO2 T02050200
KSVH 230545Z AUTO 00000KT 10SM CLR 21/20 A3009 RMK AO2 T02100201
KSVH 230525Z AUTO 00000KT 10SM CLR 21/20 A3009 RMK AO2 T02100203
KSVH 230505Z AUTO 00000KT 10SM CLR 21/20 A3010 RMK AO2 T02100201
KSVH 230445Z AUTO 00000KT 10SM CLR 21/20 A3010 RMK AO2 T02120204
KSVH 230425Z AUTO 00000KT 10SM CLR 22/21 A3010 RMK AO2 T02150205
KSVH 230405Z AUTO 00000KT 10SM CLR 22/21 A3010 RMK AO2 T02180206
KSVH 230345Z AUTO 00000KT 10SM CLR 22/21 A3010 RMK AO2 T02180206
KSVH 230325Z AUTO 00000KT 10SM CLR 22/21 A3010 RMK AO2 T02210210
KSVH 230305Z AUTO 00000KT 10SM CLR 22/21 A3009 RMK AO2 T02190209
KSVH 230225Z AUTO 00000KT 10SM CLR 22/21 A3009 RMK AO2 T02180210
KSVH 230205Z AUTO 00000KT 10SM CLR 23/21 A3008 RMK AO2 T02300214
KSVH 230145Z AUTO 00000KT 10SM CLR 23/22 A3008 RMK AO2 T02300216
KSVH 230125Z AUTO 00000KT 10SM CLR 24/22 A3008 RMK AO2 T02350218
KSVH 230105Z AUTO 00000KT 10SM CLR 24/22 A3007 RMK AO2 T02390215
KSVH 230045Z AUTO 00000KT 10SM CLR 24/22 A3006 RMK AO2 T02420218
KSVH 230025Z AUTO 00000KT 10SM CLR 25/22 A3005 RMK AO2 T02500216
KSVH 230005Z AUTO 00000KT 10SM CLR 24/22 A3005 RMK AO2 T02410218
KSVH 222345Z AUTO 00000KT 10SM SCT043 25/22 A3005 RMK AO2 T02530222
KSVH 222325Z AUTO 00000KT 10SM CLR 27/22 A3005 RMK AO2 T02660222
KSVH 222305Z AUTO 00000KT 10SM SCT044 28/21 A3005 RMK AO2 T02760214
KSVH 222245Z AUTO 00000KT 10SM CLR 28/21 A3004 RMK AO2 T02840211
KSVH 222225Z AUTO 00000KT 10SM CLR 29/21 A3004 RMK AO2 T02910210
KSVH 222205Z AUTO 19004KT 10SM CLR 30/21 A3004 RMK AO2 T02950207
KSVH 222145Z AUTO 19004KT 10SM CLR 30/21 A3004 RMK AO2 T02980205
KSVH 222125Z AUTO 19004KT 10SM CLR 30/21 A3004 RMK AO2 T03010205
KSVH 222105Z AUTO 20004KT 10SM CLR 31/21 A3005 RMK AO2 T03050207
KSVH 222045Z AUTO 20003KT 10SM SCT043 31/21 A3005 RMK AO2 T03050205
KSVH 222025Z AUTO 17005KT 10SM SCT043 31/20 A3005 RMK AO2 T03070204
KSVH 222005Z AUTO 15003KT 10SM CLR 31/19 A3006 RMK AO2 T03100191
KSVH 221945Z AUTO 11004KT 10SM SCT044 31/20 A3006 RMK AO2 T03100200
KSVH 221925Z AUTO 12005KT 10SM SCT046 SCT050 31/20 A3007 RMK AO2 T03080195
KSVH 221905Z AUTO 22003KT 10SM CLR 31/20 A3007 RMK AO2 T03110198
KSVH 221845Z AUTO 11005KT 10SM CLR 32/21 A3008 RMK AO2 T03150205
KSVH 221825Z AUTO 00000KT 10SM SCT045 31/20 A3009 RMK AO2 T03060200
KSVH 221805Z AUTO 00000KT 10SM SCT045 31/20 A3009 RMK AO2 T03060197
KSVH 221745Z AUTO 00000KT 10SM CLR 30/19 A3010 RMK AO2 T03010190
KSVH 221725Z AUTO 07004KT 10SM CLR 30/20 A3011 RMK AO2 T02980195
KSVH 221705Z AUTO 15003KT 10SM CLR 30/20 A3011 RMK AO2 T02960195
KSVH 221645Z AUTO 00000KT 10SM CLR 29/20 A3012 RMK AO2 T02880200
KSVH 221625Z AUTO 13004KT 10SM CLR 29/21 A3012 RMK AO2 T02880205
KSVH 221605Z AUTO 11003KT 10SM CLR 28/20 A3013 RMK AO2 T02830202
KSVH 221545Z AUTO 00000KT 10SM CLR 28/20 A3014 RMK AO2 T02750198
KSVH 221525Z AUTO 00000KT 10SM CLR 27/21 A3014 RMK AO2 T02700209
KSVH 221505Z AUTO 00000KT 10SM CLR 27/21 A3014 RMK AO2 T02650207
KSVH 221445Z AUTO 00000KT 10SM CLR 26/21 A3014 RMK AO2 T02560208
KSVH 221425Z AUTO 00000KT 10SM CLR 25/21 A3013 RMK AO2 T02500205
KSVH 221405Z AUTO 00000KT 10SM CLR 24/21 A3014 RMK AO2 T02410205
KSVH 221345Z AUTO 00000KT 10SM CLR 23/20 A3013 RMK AO2 T02300203
KSVH 221325Z AUTO 22003KT 10SM CLR 22/20 A3013 RMK AO2 T02220201
KSVH 221305Z AUTO 18003KT 10SM CLR 22/20 A3013 RMK AO2 T02180201
KSVH 221245Z AUTO 00000KT 10SM CLR 21/20 A3013 RMK AO2 T02100196
KSVH 221225Z AUTO 00000KT 7SM CLR 20/19 A3012 RMK AO2 T02010192
KSVH 221205Z AUTO 00000KT 5SM BR CLR 20/19 A3013 RMK AO2 T02000192
KSVH 221145Z AUTO 00000KT 2 1/2SM BR CLR 19/19 A3012 RMK AO2 T01900186
KSVH 221125Z AUTO 00000KT 4SM BR CLR 19/19 A3012 RMK AO2 T01900186
KSVH 221105Z AUTO 00000KT 7SM CLR 20/19 A3011 RMK AO2 T01950187
KSVH 221045Z AUTO 00000KT 7SM CLR 20/19 A3011 RMK AO2 T01950189
KSVH 221025Z AUTO 00000KT 7SM CLR 20/19 A3011 RMK AO2 T01960190
KSVH 221005Z AUTO 22003KT 7SM CLR 20/19 A3011 RMK AO2 T01970191
KSVH 220945Z AUTO 21003KT 10SM CLR 20/19 A3011 RMK AO2 T01970191
KSVH 220925Z AUTO 22003KT 10SM CLR 20/19 A3011 RMK AO2 T01950190
KSVH 220905Z AUTO 21003KT 7SM CLR 19/19 A3011 RMK AO2 T01920188
KSVH 220845Z AUTO 00000KT 5SM BR CLR 19/19 A3011 RMK AO2 T01910187
KSVH 220825Z AUTO 00000KT 10SM CLR 20/19 A3011 RMK AO2 T01960190
KSVH 220805Z AUTO 00000KT 7SM CLR 19/19 A3013 RMK AO2 T01910186
KSVH 220745Z AUTO 00000KT 5SM BR CLR 19/19 A3012 RMK AO2 T01910187
KSVH 220725Z AUTO 00000KT 10SM CLR 20/19 A3013 RMK AO2 T02000194
KSVH 220705Z AUTO 00000KT 10SM CLR 20/20 A3013 RMK AO2 T02000195
KSVH 220645Z AUTO 00000KT 10SM CLR 20/19 A3014 RMK AO2 T02000191
KSVH 220625Z AUTO 00000KT 10SM CLR 21/20 A3014 RMK AO2 T02080195
KSVH 220605Z AUTO 00000KT 10SM CLR 21/20 A3014 RMK AO2 T02100196
KSVH 220545Z AUTO 00000KT 10SM CLR 21/20 A3013 RMK AO2 T02100200
KSVH 220525Z AUTO 21003KT 7SM CLR 20/19 A3013 RMK AO2 T01950189
KSVH 220505Z AUTO 00000KT 10SM CLR 20/19 A3015 RMK AO2 T02000192
KSVH 220445Z AUTO 00000KT 10SM CLR 21/20 A3015 RMK AO2 T02110195
KSVH 220425Z AUTO 00000KT 10SM CLR 21/20 A3016 RMK AO2 T02050195
KSVH 220405Z AUTO 22003KT 10SM CLR 21/19 A3015 RMK AO2 T02050194
KSVH 220345Z AUTO 00000KT 10SM CLR 20/20 A3015 RMK AO2 T02010195
KSVH 220325Z AUTO 00000KT 10SM CLR 21/20 A3015 RMK AO2 T02060197
KSVH 220305Z AUTO 00000KT 10SM CLR 22/20 A3016 RMK AO2 T02150201
KSVH 220245Z AUTO 00000KT 10SM CLR 21/20 A3016 RMK AO2 T02100200
KSVH 220225Z AUTO 00000KT 10SM CLR 21/20 A3016 RMK AO2 T02100201
KSVH 220205Z AUTO 00000KT 10SM CLR 22/20 A3016 RMK AO2 T02150202
KSVH 220145Z AUTO 00000KT 10SM CLR 22/20 A3016 RMK AO2 T02160203
KSVH 220125Z AUTO 00000KT 10SM CLR 22/21 A3015 RMK AO2 T02200205
KSVH 220105Z AUTO 00000KT 10SM CLR 22/21 A3015 RMK AO2 T02230205